Terminal Aerodrome Forecast
Issued by NWS

Home | Current Version | Previous Version | Text Only | Print | Product List | Glossary On
Versions: 1 2 3 4 5 6 7 8 9 10 11 12 13
000
FTUS41 KBTV 232337
TAFRUT
TAF
KRUT 232337Z 2400/2424 VRB03KT P6SM BKN050
     FM240300 VRB03KT P6SM SCT050
     FM241100 12005KT P6SM SCT050 BKN150 BKN200
     FM241500 15009KT 6SM -SHRA OVC035
     FM242100 16007KT P6SM OVC035=

USA.gov is the U.S. government's official web portal to all federal, state and local government web resources and services.